Portada
METAR-TAF:

METAR-TAF

Aeropuertos :

Portage Glacier, Alaska, Estados Unidos

latitud: 60-47N, longitud: 148-50W, altitud: 29 m

Observación

El informe se hizo hace 23 minutos, a las 08:26 UTC
Viento 4 kt con dirección variable
Temperatura -3°C
Humedad 93%
Presión 994 hPa
Visibilidad: 1.2 km
poca nieve, neblina

METAR: PATO 280826Z AUTO VRB04KT 3/4SM -SN BR VV011 M03/M04 A2934 RMK AO2 P0002 T10331039 TSNO

Hora: 23:49 (08:49 UTC)


TAF: falta

Observaciones y pronósticos meteorológicos de más de 4000 aeropuertos (mensajes METAR y TAF).

Los puntos amarillos y rojos representan las estaciones disponibles.

Ponga el ratón en el punto deseado para ver el nombre de la estación.

Haga clic para ver las observaciones y los pronósticos meteorológicos.

Para cambiar el mapa : haga clic en los botones verdes con una cruz de color negro para hacer un zoom, en el botón verde con un guión para alejar o en las flechas verdes para mapas adyacentes.


METAR-TAF: